Ever Ulysses — 9V7962 — position and weather

sailwx.info

Track history (hours):
 
Tides and Currents Weather Stations Pressure Air Temp Water Temp Dewpoint Dewpoint Depression Visibility Wind Speed Wind Dir Waves Ship Positions

Ever Ulysses

Last reported at 2014-Nov-24 10:21 UTC. Time now 2014-Nov-28 13:26 UTC.
Position N 35°38' E 026°01'.

Length 285 m; draft 11.9 m.

Type: Ship (hazmat cat D). MMSI: 564442000.

Date/timePositionNaut miles runAvg speedWind from/ knotsBaromVisibWave heightAir tempDewpointWater temp
2014-Nov-24 10:21N 35°38' E 026°01'1214.8
2014-Nov-24 09:33N 35°44' E 025°49'1919.3
2014-Nov-24 08:33N 35°55' E 025°29'1817.7
2014-Nov-24 07:33N 36°05' E 025°11'1414.0
2014-Nov-24 06:33N 36°12' E 024°56'1413.8
2014-Nov-24 05:33N 36°20' E 024°42'1414.3
2014-Nov-24 04:33N 36°28' E 024°27'1313.5
2014-Nov-24 03:33N 36°36' E 024°14'1413.9
2014-Nov-24 02:34N 36°48' E 024°05'1414.2
2014-Nov-24 01:34N 37°00' E 023°56'1713.7
2014-Nov-24 00:18N 37°17' E 023°51'1112.2
2014-Nov-23 23:25N 37°27' E 023°46'1214.1
2014-Nov-23 22:34N 37°38' E 023°43'1414.0
2014-Nov-23 21:34N 37°52' E 023°36'6 5.5
2014-Nov-23 20:31N 37°57' E 023°35'0 0.0
2014-Nov-23 19:31N 37°57' E 023°35'0 0.0
2014-Nov-23 18:31N 37°57' E 023°35'0 0.0
2014-Nov-23 17:31N 37°57' E 023°35'0 0.0
2014-Nov-23 16:31N 37°57' E 023°35'0 0.0
2014-Nov-23 15:31N 37°57' E 023°35'0 0.0
2014-Nov-23 14:31N 37°57' E 023°35'0 0.0
2014-Nov-23 13:31N 37°57' E 023°35'0 0.0
2014-Nov-23 12:31N 37°57' E 023°35'0 0.0
2014-Nov-23 11:31N 37°57' E 023°35'0 0.0
2014-Nov-23 10:31N 37°57' E 023°35'0 0.0
2014-Nov-23 09:31N 37°57' E 023°35'0 0.0
2014-Nov-23 08:31N 37°57' E 023°35'2 2.1
2014-Nov-23 07:33N 37°55' E 023°35'5 4.6
2014-Nov-23 06:34N 37°51' E 023°36'0 0.2
2014-Nov-23 05:34N 37°51' E 023°36'1 1.4
2014-Nov-23 04:33N 37°52' E 023°36'1 0.9
2014-Nov-23 03:34N 37°53' E 023°37'2 2.4
2014-Nov-23 02:33N 37°51' E 023°39'1313.2
2014-Nov-23 01:34N 37°39' E 023°45'5513.4
2014-Nov-22 21:29N 36°44' E 023°44'43310.5
2014-Nov-21 04:14N 36°27' E 014°44'1014.1
2014-Nov-21 03:33N 36°27' E 014°32'1413.9
2014-Nov-21 02:33N 36°30' E 014°15'1414.0
2014-Nov-21 01:33N 36°34' E 013°58'1413.9
2014-Nov-21 00:33N 36°37' E 013°42'1413.8
2014-Nov-20 23:32N 36°41' E 013°25'4613.8
2014-Nov-20 20:11N 36°54' E 012°29'2413.6
2014-Nov-20 18:25N 36°60' E 012°00'1213.7
2014-Nov-20 17:33N 37°06' E 011°47'1413.7
2014-Nov-20 16:30N 37°13' E 011°31'2914.1
2014-Nov-20 14:28N 37°25' E 010°59'1314.3
2014-Nov-20 13:33N 37°28' E 010°43'1414.3
2014-Nov-20 12:33N 37°31' E 010°25'1514.5
2014-Nov-20 11:33N 37°34' E 010°07'1514.7
2014-Nov-20 10:33N 37°36' E 009°49'1514.3
2014-Nov-20 09:29N 37°41' E 009°30'1718.5
2014-Nov-20 08:33N 37°46' E 009°10'1818.5
2014-Nov-20 07:33N 37°49' E 008°47'1414.2
2014-Nov-20 06:33N 37°47' E 008°29'1413.3
2014-Nov-20 05:32N 37°44' E 008°12'1313.5
2014-Nov-20 04:33N 37°42' E 007°56'1513.5
2014-Nov-20 03:26N 37°40' E 007°37'2813.9
2014-Nov-20 01:28N 37°36' E 007°02'1313.9
2014-Nov-20 00:33N 37°34' E 006°47'1613.8
2014-Nov-19 23:21N 37°31' E 006°26'1113.7
2014-Nov-19 22:33N 37°30' E 006°13'1312.9
2014-Nov-19 21:32N 37°26' E 005°56'1413.2
2014-Nov-19 20:30N 37°24' E 005°40'1313.4
2014-Nov-19 19:31N 37°22' E 005°23'2913.8
2014-Nov-19 17:26N 37°17' E 004°47'1214.0
2014-Nov-19 16:33N 37°15' E 004°32'1414.1
2014-Nov-19 15:33N 37°13' E 004°15'1414.2
2014-Nov-19 14:33N 37°10' E 003°57'1514.7
2014-Nov-19 13:33N 37°08' E 003°39'1614.7
2014-Nov-19 12:29N 37°05' E 003°20'1414.7
2014-Nov-19 11:33N 37°03' E 003°03'1514.5
2014-Nov-19 10:33N 37°00' E 002°45'1717.1
2014-Nov-19 09:33N 36°58' E 002°24'2320.3
2014-Nov-19 08:25N 36°54' E 001°55'7615.3
2014-Nov-19 03:25N 36°41' E 000°21'1314.4
2014-Nov-19 02:30N 36°39' E 000°05'1414.4
2014-Nov-19 01:33N 36°37' W 000°12'1914.5
2014-Nov-19 00:14N 36°33' W 000°36'23114.7
2014-Nov-18 08:33N 35°59' W 005°18'24312.5
2014-Nov-17 13:03N 37°39' W 009°55'815.4
2014-Nov-17 12:33N 37°46' W 009°51'1413.6
2014-Nov-17 11:33N 37°59' W 009°54'  
2014-Nov-14 23:32N 49°57' W 002°54'11212.3
2014-Nov-14 14:25N 50°25' W 000°05'2613.9
2014-Nov-14 12:33N 50°37' E 000°32'1414.2
2014-Nov-14 11:34N 50°45' E 000°50'1413.9
2014-Nov-14 10:34N 50°52' E 001°09'  
Track history (hours):
 
Tides and Currents Weather Stations Pressure Air Temp Water Temp Dewpoint Dewpoint Depression Visibility Wind Speed Wind Dir Waves Ship Positions

Ever Ulysses

Last reported at 2014-Nov-24 10:21 UTC. Time now 2014-Nov-28 13:26 UTC.
Position N 35°38' E 026°01'.

Length 285 m; draft 11.9 m.

Type: Ship (hazmat cat D). MMSI: 564442000.

Date/timePositionNaut miles runAvg speedWind from/ knotsBaromVisibWave heightAir tempDewpointWater temp
2014-Nov-24 10:21N 35°38' E 026°01'1214.8
2014-Nov-24 09:33N 35°44' E 025°49'1919.3
2014-Nov-24 08:33N 35°55' E 025°29'1817.7
2014-Nov-24 07:33N 36°05' E 025°11'1414.0
2014-Nov-24 06:33N 36°12' E 024°56'1413.8
2014-Nov-24 05:33N 36°20' E 024°42'1414.3
2014-Nov-24 04:33N 36°28' E 024°27'1313.5
2014-Nov-24 03:33N 36°36' E 024°14'1413.9
2014-Nov-24 02:34N 36°48' E 024°05'1414.2
2014-Nov-24 01:34N 37°00' E 023°56'1713.7
2014-Nov-24 00:18N 37°17' E 023°51'1112.2
2014-Nov-23 23:25N 37°27' E 023°46'1214.1
2014-Nov-23 22:34N 37°38' E 023°43'1414.0
2014-Nov-23 21:34N 37°52' E 023°36'6 5.5
2014-Nov-23 20:31N 37°57' E 023°35'0 0.0
2014-Nov-23 19:31N 37°57' E 023°35'0 0.0
2014-Nov-23 18:31N 37°57' E 023°35'0 0.0
2014-Nov-23 17:31N 37°57' E 023°35'0 0.0
2014-Nov-23 16:31N 37°57' E 023°35'0 0.0
2014-Nov-23 15:31N 37°57' E 023°35'0 0.0
2014-Nov-23 14:31N 37°57' E 023°35'0 0.0
2014-Nov-23 13:31N 37°57' E 023°35'0 0.0
2014-Nov-23 12:31N 37°57' E 023°35'0 0.0
2014-Nov-23 11:31N 37°57' E 023°35'0 0.0
2014-Nov-23 10:31N 37°57' E 023°35'0 0.0
2014-Nov-23 09:31N 37°57' E 023°35'0 0.0
2014-Nov-23 08:31N 37°57' E 023°35'2 2.1
2014-Nov-23 07:33N 37°55' E 023°35'5 4.6
2014-Nov-23 06:34N 37°51' E 023°36'0 0.2
2014-Nov-23 05:34N 37°51' E 023°36'1 1.4
2014-Nov-23 04:33N 37°52' E 023°36'1 0.9
2014-Nov-23 03:34N 37°53' E 023°37'2 2.4
2014-Nov-23 02:33N 37°51' E 023°39'1313.2
2014-Nov-23 01:34N 37°39' E 023°45'5513.4
2014-Nov-22 21:29N 36°44' E 023°44'43310.5
2014-Nov-21 04:14N 36°27' E 014°44'1014.1
2014-Nov-21 03:33N 36°27' E 014°32'1413.9
2014-Nov-21 02:33N 36°30' E 014°15'1414.0
2014-Nov-21 01:33N 36°34' E 013°58'1413.9
2014-Nov-21 00:33N 36°37' E 013°42'1413.8
2014-Nov-20 23:32N 36°41' E 013°25'4613.8
2014-Nov-20 20:11N 36°54' E 012°29'2413.6
2014-Nov-20 18:25N 36°60' E 012°00'1213.7
2014-Nov-20 17:33N 37°06' E 011°47'1413.7
2014-Nov-20 16:30N 37°13' E 011°31'2914.1
2014-Nov-20 14:28N 37°25' E 010°59'1314.3
2014-Nov-20 13:33N 37°28' E 010°43'1414.3
2014-Nov-20 12:33N 37°31' E 010°25'1514.5
2014-Nov-20 11:33N 37°34' E 010°07'1514.7
2014-Nov-20 10:33N 37°36' E 009°49'1514.3
2014-Nov-20 09:29N 37°41' E 009°30'1718.5
2014-Nov-20 08:33N 37°46' E 009°10'1818.5
2014-Nov-20 07:33N 37°49' E 008°47'1414.2
2014-Nov-20 06:33N 37°47' E 008°29'1413.3
2014-Nov-20 05:32N 37°44' E 008°12'1313.5
2014-Nov-20 04:33N 37°42' E 007°56'1513.5
2014-Nov-20 03:26N 37°40' E 007°37'2813.9
2014-Nov-20 01:28N 37°36' E 007°02'1313.9
2014-Nov-20 00:33N 37°34' E 006°47'1613.8
2014-Nov-19 23:21N 37°31' E 006°26'1113.7
2014-Nov-19 22:33N 37°30' E 006°13'1312.9
2014-Nov-19 21:32N 37°26' E 005°56'1413.2
2014-Nov-19 20:30N 37°24' E 005°40'1313.4
2014-Nov-19 19:31N 37°22' E 005°23'2913.8
2014-Nov-19 17:26N 37°17' E 004°47'1214.0
2014-Nov-19 16:33N 37°15' E 004°32'1414.1
2014-Nov-19 15:33N 37°13' E 004°15'1414.2
2014-Nov-19 14:33N 37°10' E 003°57'1514.7
2014-Nov-19 13:33N 37°08' E 003°39'1614.7
2014-Nov-19 12:29N 37°05' E 003°20'1414.7
2014-Nov-19 11:33N 37°03' E 003°03'1514.5
2014-Nov-19 10:33N 37°00' E 002°45'1717.1
2014-Nov-19 09:33N 36°58' E 002°24'2320.3
2014-Nov-19 08:25N 36°54' E 001°55'7615.3
2014-Nov-19 03:25N 36°41' E 000°21'1314.4
2014-Nov-19 02:30N 36°39' E 000°05'1414.4
2014-Nov-19 01:33N 36°37' W 000°12'1914.5
2014-Nov-19 00:14N 36°33' W 000°36'23114.7
2014-Nov-18 08:33N 35°59' W 005°18'24312.5
2014-Nov-17 13:03N 37°39' W 009°55'815.4
2014-Nov-17 12:33N 37°46' W 009°51'1413.6
2014-Nov-17 11:33N 37°59' W 009°54'  
2014-Nov-14 23:32N 49°57' W 002°54'11212.3
2014-Nov-14 14:25N 50°25' W 000°05'2613.9
2014-Nov-14 12:33N 50°37' E 000°32'1414.2
2014-Nov-14 11:34N 50°45' E 000°50'1413.9
2014-Nov-14 10:34N 50°52' E 001°09'  

Dump ship's entire track history